sensor_id;sensor_type;location;lat;lon;timestamp;P1;durP1;ratioP1;P2;durP2;ratioP2
57752;SDS011;43583;53.132;6.574;2023-10-09T00:01:25;5.25;;;1.23;;
57752;SDS011;43583;53.132;6.574;2023-10-09T00:03:51;7.05;;;1.58;;
57752;SDS011;43583;53.132;6.574;2023-10-09T00:06:21;4.53;;;1.02;;
57752;SDS011;43583;53.132;6.574;2023-10-09T00:08:56;6.13;;;1.75;;
57752;SDS011;43583;53.132;6.574;2023-10-09T00:11:23;9.02;;;1.88;;
57752;SDS011;43583;53.132;6.574;2023-10-09T00:13:55;6.30;;;1.48;;
57752;SDS011;43583;53.132;6.574;2023-10-09T00:16:25;7.80;;;2.83;;
57752;SDS011;43583;53.132;6.574;2023-10-09T00:19:03;5.60;;;1.60;;
57752;SDS011;43583;53.132;6.574;2023-10-09T00:21:46;5.43;;;2.10;;
57752;SDS011;43583;53.132;6.574;2023-10-09T00:24:12;5.95;;;2.05;;
57752;SDS011;43583;53.132;6.574;2023-10-09T00:26:45;6.95;;;1.95;;
57752;SDS011;43583;53.132;6.574;2023-10-09T00:29:14;5.05;;;1.95;;
57752;SDS011;43583;53.132;6.574;2023-10-09T00:31:55;9.05;;;3.25;;
57752;SDS011;43583;53.132;6.574;2023-10-09T00:34:39;7.53;;;2.80;;
57752;SDS011;43583;53.132;6.574;2023-10-09T00:37:06;3.80;;;1.48;;
57752;SDS011;43583;53.132;6.574;2023-10-09T00:39:44;9.23;;;2.83;;
57752;SDS011;43583;53.132;6.574;2023-10-09T00:42:13;8.57;;;4.22;;
57752;SDS011;43583;53.132;6.574;2023-10-09T00:44:52;9.65;;;3.08;;
57752;SDS011;43583;53.132;6.574;2023-10-09T00:47:18;6.13;;;2.83;;
57752;SDS011;43583;53.132;6.574;2023-10-09T00:50:09;8.48;;;3.08;;
57752;SDS011;43583;53.132;6.574;2023-10-09T00:52:46;11.38;;;3.28;;
57752;SDS011;43583;53.132;6.574;2023-10-09T00:55:19;9.38;;;3.33;;
57752;SDS011;43583;53.132;6.574;2023-10-09T00:58:05;10.25;;;3.17;;
57752;SDS011;43583;53.132;6.574;2023-10-09T01:00:48;8.93;;;2.70;;
57752;SDS011;43583;53.132;6.574;2023-10-09T01:03:17;9.38;;;4.00;;
57752;SDS011;43583;53.132;6.574;2023-10-09T01:08:19;10.50;;;3.50;;
57752;SDS011;43583;53.132;6.574;2023-10-09T01:10:54;10.13;;;3.60;;
57752;SDS011;43583;53.132;6.574;2023-10-09T01:13:24;10.98;;;4.40;;
57752;SDS011;43583;53.132;6.574;2023-10-09T01:16:18;8.57;;;3.78;;
57752;SDS011;43583;53.132;6.574;2023-10-09T01:18:53;8.55;;;3.53;;
57752;SDS011;43583;53.132;6.574;2023-10-09T01:21:23;10.73;;;5.15;;
57752;SDS011;43583;53.132;6.574;2023-10-09T01:23:51;13.82;;;5.90;;
57752;SDS011;43583;53.132;6.574;2023-10-09T01:26:33;16.02;;;5.57;;
57752;SDS011;43583;53.132;6.574;2023-10-09T01:29:12;19.73;;;7.10;;
57752;SDS011;43583;53.132;6.574;2023-10-09T01:31:45;13.52;;;4.97;;
57752;SDS011;43583;53.132;6.574;2023-10-09T01:36:51;13.93;;;6.03;;
57752;SDS011;43583;53.132;6.574;2023-10-09T01:39:20;15.20;;;6.43;;
57752;SDS011;43583;53.132;6.574;2023-10-09T01:41:48;15.63;;;5.80;;
57752;SDS011;43583;53.132;6.574;2023-10-09T01:44:17;12.55;;;5.88;;
57752;SDS011;43583;53.132;6.574;2023-10-09T01:46:44;14.27;;;5.90;;
57752;SDS011;43583;53.132;6.574;2023-10-09T01:49:12;14.60;;;6.07;;
57752;SDS011;43583;53.132;6.574;2023-10-09T01:51:47;14.20;;;5.88;;
57752;SDS011;43583;53.132;6.574;2023-10-09T01:54:15;16.85;;;5.78;;
57752;SDS011;43583;53.132;6.574;2023-10-09T01:56:58;17.33;;;6.28;;
57752;SDS011;43583;53.132;6.574;2023-10-09T01:59:30;18.75;;;6.72;;
57752;SDS011;43583;53.132;6.574;2023-10-09T02:02:03;18.90;;;6.85;;
57752;SDS011;43583;53.132;6.574;2023-10-09T02:07:38;18.50;;;7.38;;
57752;SDS011;43583;53.132;6.574;2023-10-09T02:10:16;17.75;;;7.22;;
57752;SDS011;43583;53.132;6.574;2023-10-09T02:13:02;20.70;;;7.50;;
57752;SDS011;43583;53.132;6.574;2023-10-09T02:15:37;20.42;;;7.32;;
57752;SDS011;43583;53.132;6.574;2023-10-09T02:18:07;20.13;;;7.82;;
57752;SDS011;43583;53.132;6.574;2023-10-09T02:21:05;17.30;;;7.57;;
57752;SDS011;43583;53.132;6.574;2023-10-09T02:23:32;14.82;;;7.40;;
57752;SDS011;43583;53.132;6.574;2023-10-09T02:26:12;19.33;;;7.53;;
57752;SDS011;43583;53.132;6.574;2023-10-09T02:28:49;19.67;;;7.57;;
57752;SDS011;43583;53.132;6.574;2023-10-09T02:31:38;20.33;;;8.27;;
57752;SDS011;43583;53.132;6.574;2023-10-09T02:34:11;16.17;;;8.65;;
57752;SDS011;43583;53.132;6.574;2023-10-09T02:36:37;17.85;;;7.95;;
57752;SDS011;43583;53.132;6.574;2023-10-09T02:39:06;21.55;;;8.15;;
57752;SDS011;43583;53.132;6.574;2023-10-09T02:41:51;17.67;;;8.07;;
57752;SDS011;43583;53.132;6.574;2023-10-09T02:44:20;19.25;;;8.48;;
57752;SDS011;43583;53.132;6.574;2023-10-09T02:46:50;15.32;;;8.10;;
57752;SDS011;43583;53.132;6.574;2023-10-09T02:49:16;17.58;;;7.43;;
57752;SDS011;43583;53.132;6.574;2023-10-09T02:51:41;16.35;;;7.13;;
57752;SDS011;43583;53.132;6.574;2023-10-09T02:54:07;19.33;;;7.88;;
57752;SDS011;43583;53.132;6.574;2023-10-09T02:56:48;19.63;;;7.55;;
57752;SDS011;43583;53.132;6.574;2023-10-09T02:59:32;20.30;;;8.75;;
57752;SDS011;43583;53.132;6.574;2023-10-09T03:01:58;21.90;;;8.95;;
57752;SDS011;43583;53.132;6.574;2023-10-09T03:04:27;23.05;;;9.38;;
57752;SDS011;43583;53.132;6.574;2023-10-09T03:06:55;22.15;;;9.57;;
57752;SDS011;43583;53.132;6.574;2023-10-09T03:09:22;23.27;;;9.32;;
57752;SDS011;43583;53.132;6.574;2023-10-09T03:11:53;27.77;;;10.38;;
57752;SDS011;43583;53.132;6.574;2023-10-09T03:14:27;30.48;;;10.70;;
57752;SDS011;43583;53.132;6.574;2023-10-09T03:16:56;22.70;;;10.90;;
57752;SDS011;43583;53.132;6.574;2023-10-09T03:19:25;26.30;;;10.48;;
57752;SDS011;43583;53.132;6.574;2023-10-09T03:21:52;28.73;;;12.10;;
57752;SDS011;43583;53.132;6.574;2023-10-09T03:24:17;25.05;;;11.23;;
57752;SDS011;43583;53.132;6.574;2023-10-09T03:26:45;32.22;;;13.30;;
57752;SDS011;43583;53.132;6.574;2023-10-09T03:29:10;31.02;;;12.80;;
57752;SDS011;43583;53.132;6.574;2023-10-09T03:31:36;29.13;;;13.55;;
57752;SDS011;43583;53.132;6.574;2023-10-09T03:34:03;28.25;;;12.02;;
57752;SDS011;43583;53.132;6.574;2023-10-09T03:36:29;27.17;;;12.63;;
57752;SDS011;43583;53.132;6.574;2023-10-09T03:39:03;36.63;;;13.60;;
57752;SDS011;43583;53.132;6.574;2023-10-09T03:41:45;26.63;;;12.25;;
57752;SDS011;43583;53.132;6.574;2023-10-09T03:44:13;34.65;;;14.13;;
57752;SDS011;43583;53.132;6.574;2023-10-09T03:46:41;32.45;;;14.27;;
57752;SDS011;43583;53.132;6.574;2023-10-09T03:49:09;38.33;;;14.80;;
57752;SDS011;43583;53.132;6.574;2023-10-09T03:51:36;33.38;;;14.27;;
57752;SDS011;43583;53.132;6.574;2023-10-09T03:54:02;35.72;;;14.35;;
57752;SDS011;43583;53.132;6.574;2023-10-09T03:56:32;34.17;;;14.35;;
57752;SDS011;43583;53.132;6.574;2023-10-09T03:58:58;29.00;;;14.30;;
57752;SDS011;43583;53.132;6.574;2023-10-09T04:01:25;31.92;;;13.35;;
57752;SDS011;43583;53.132;6.574;2023-10-09T04:03:57;30.50;;;14.60;;
57752;SDS011;43583;53.132;6.574;2023-10-09T04:06:28;36.85;;;16.10;;
57752;SDS011;43583;53.132;6.574;2023-10-09T04:09:02;29.48;;;14.20;;
57752;SDS011;43583;53.132;6.574;2023-10-09T04:11:44;35.35;;;14.68;;
57752;SDS011;43583;53.132;6.574;2023-10-09T04:14:14;31.92;;;14.38;;
57752;SDS011;43583;53.132;6.574;2023-10-09T04:16:52;32.05;;;15.00;;
57752;SDS011;43583;53.132;6.574;2023-10-09T04:19:27;32.75;;;15.90;;
57752;SDS011;43583;53.132;6.574;2023-10-09T04:21:53;30.95;;;13.63;;
57752;SDS011;43583;53.132;6.574;2023-10-09T04:24:20;34.83;;;13.85;;
57752;SDS011;43583;53.132;6.574;2023-10-09T04:26:46;30.55;;;14.18;;
57752;SDS011;43583;53.132;6.574;2023-10-09T04:29:15;36.00;;;14.75;;
57752;SDS011;43583;53.132;6.574;2023-10-09T04:31:57;31.13;;;13.65;;
57752;SDS011;43583;53.132;6.574;2023-10-09T04:34:26;27.10;;;11.85;;
57752;SDS011;43583;53.132;6.574;2023-10-09T04:37:15;33.70;;;12.88;;
57752;SDS011;43583;53.132;6.574;2023-10-09T04:39:59;27.60;;;11.75;;
57752;SDS011;43583;53.132;6.574;2023-10-09T04:42:38;27.95;;;11.48;;
57752;SDS011;43583;53.132;6.574;2023-10-09T04:45:11;26.50;;;12.77;;
57752;SDS011;43583;53.132;6.574;2023-10-09T04:47:39;26.52;;;11.90;;
57752;SDS011;43583;53.132;6.574;2023-10-09T04:53:00;29.80;;;11.65;;
57752;SDS011;43583;53.132;6.574;2023-10-09T04:55:41;32.28;;;13.32;;
57752;SDS011;43583;53.132;6.574;2023-10-09T04:58:19;30.10;;;13.02;;
57752;SDS011;43583;53.132;6.574;2023-10-09T05:00:50;28.33;;;13.68;;
57752;SDS011;43583;53.132;6.574;2023-10-09T05:06:08;24.35;;;12.45;;
57752;SDS011;43583;53.132;6.574;2023-10-09T05:09:00;29.75;;;13.32;;
57752;SDS011;43583;53.132;6.574;2023-10-09T05:11:33;28.92;;;12.40;;
57752;SDS011;43583;53.132;6.574;2023-10-09T05:14:01;27.90;;;12.60;;
57752;SDS011;43583;53.132;6.574;2023-10-09T05:16:39;30.30;;;13.27;;
57752;SDS011;43583;53.132;6.574;2023-10-09T05:19:23;26.15;;;11.52;;
57752;SDS011;43583;53.132;6.574;2023-10-09T05:22:06;31.45;;;13.00;;
57752;SDS011;43583;53.132;6.574;2023-10-09T05:24:55;28.95;;;12.18;;
57752;SDS011;43583;53.132;6.574;2023-10-09T05:27:21;25.08;;;11.95;;
57752;SDS011;43583;53.132;6.574;2023-10-09T05:30:06;29.30;;;11.25;;
57752;SDS011;43583;53.132;6.574;2023-10-09T05:32:50;24.25;;;11.90;;
57752;SDS011;43583;53.132;6.574;2023-10-09T05:35:20;27.10;;;10.95;;
57752;SDS011;43583;53.132;6.574;2023-10-09T05:37:55;23.77;;;11.30;;
57752;SDS011;43583;53.132;6.574;2023-10-09T05:40:27;25.10;;;10.98;;
57752;SDS011;43583;53.132;6.574;2023-10-09T05:42:56;23.98;;;11.32;;
57752;SDS011;43583;53.132;6.574;2023-10-09T05:45:27;29.50;;;11.32;;
57752;SDS011;43583;53.132;6.574;2023-10-09T05:48:31;21.35;;;9.50;;
57752;SDS011;43583;53.132;6.574;2023-10-09T05:51:02;20.55;;;10.10;;
57752;SDS011;43583;53.132;6.574;2023-10-09T05:53:33;22.13;;;9.73;;
57752;SDS011;43583;53.132;6.574;2023-10-09T05:56:11;21.90;;;9.43;;
57752;SDS011;43583;53.132;6.574;2023-10-09T05:58:57;21.08;;;9.18;;
57752;SDS011;43583;53.132;6.574;2023-10-09T06:01:41;16.95;;;8.00;;
57752;SDS011;43583;53.132;6.574;2023-10-09T06:04:16;17.17;;;8.25;;
57752;SDS011;43583;53.132;6.574;2023-10-09T06:06:44;17.15;;;8.20;;
57752;SDS011;43583;53.132;6.574;2023-10-09T06:09:11;19.58;;;8.45;;
57752;SDS011;43583;53.132;6.574;2023-10-09T06:11:47;20.65;;;8.82;;
57752;SDS011;43583;53.132;6.574;2023-10-09T06:14:19;22.48;;;8.20;;
57752;SDS011;43583;53.132;6.574;2023-10-09T06:16:55;21.88;;;9.70;;
57752;SDS011;43583;53.132;6.574;2023-10-09T06:19:21;20.35;;;8.38;;
57752;SDS011;43583;53.132;6.574;2023-10-09T06:21:48;17.13;;;6.85;;
57752;SDS011;43583;53.132;6.574;2023-10-09T06:24:16;14.50;;;5.97;;
57752;SDS011;43583;53.132;6.574;2023-10-09T06:26:48;13.80;;;5.88;;
57752;SDS011;43583;53.132;6.574;2023-10-09T06:29:23;19.92;;;6.75;;
57752;SDS011;43583;53.132;6.574;2023-10-09T06:32:08;14.50;;;5.07;;
57752;SDS011;43583;53.132;6.574;2023-10-09T06:37:25;13.13;;;6.63;;
57752;SDS011;43583;53.132;6.574;2023-10-09T06:39:54;15.63;;;5.68;;
57752;SDS011;43583;53.132;6.574;2023-10-09T06:42:22;15.60;;;5.00;;
57752;SDS011;43583;53.132;6.574;2023-10-09T06:45:13;15.52;;;4.97;;
57752;SDS011;43583;53.132;6.574;2023-10-09T06:47:43;9.60;;;4.60;;
57752;SDS011;43583;53.132;6.574;2023-10-09T06:50:24;15.63;;;5.25;;
57752;SDS011;43583;53.132;6.574;2023-10-09T06:52:50;14.63;;;5.10;;
57752;SDS011;43583;53.132;6.574;2023-10-09T06:55:37;9.93;;;5.03;;
57752;SDS011;43583;53.132;6.574;2023-10-09T06:58:16;15.98;;;5.30;;
57752;SDS011;43583;53.132;6.574;2023-10-09T07:03:23;15.48;;;4.53;;
57752;SDS011;43583;53.132;6.574;2023-10-09T07:06:10;14.60;;;5.32;;
57752;SDS011;43583;53.132;6.574;2023-10-09T07:08:55;11.50;;;4.38;;
57752;SDS011;43583;53.132;6.574;2023-10-09T07:11:40;13.27;;;5.15;;
57752;SDS011;43583;53.132;6.574;2023-10-09T07:16:57;12.30;;;4.90;;
57752;SDS011;43583;53.132;6.574;2023-10-09T07:19:47;13.52;;;5.53;;
57752;SDS011;43583;53.132;6.574;2023-10-09T07:22:14;11.65;;;5.07;;
57752;SDS011;43583;53.132;6.574;2023-10-09T07:24:49;10.82;;;4.57;;
57752;SDS011;43583;53.132;6.574;2023-10-09T07:27:25;17.30;;;5.47;;
57752;SDS011;43583;53.132;6.574;2023-10-09T07:30:11;15.95;;;5.05;;
57752;SDS011;43583;53.132;6.574;2023-10-09T07:33:00;12.93;;;4.35;;
57752;SDS011;43583;53.132;6.574;2023-10-09T07:35:46;11.20;;;3.85;;
57752;SDS011;43583;53.132;6.574;2023-10-09T07:38:19;11.10;;;4.85;;
57752;SDS011;43583;53.132;6.574;2023-10-09T07:40:46;11.57;;;4.95;;
57752;SDS011;43583;53.132;6.574;2023-10-09T07:43:41;8.93;;;3.70;;
57752;SDS011;43583;53.132;6.574;2023-10-09T07:46:11;15.45;;;4.53;;
57752;SDS011;43583;53.132;6.574;2023-10-09T07:48:57;11.60;;;4.72;;
57752;SDS011;43583;53.132;6.574;2023-10-09T07:51:25;12.10;;;4.40;;
57752;SDS011;43583;53.132;6.574;2023-10-09T07:53:57;12.30;;;4.70;;
57752;SDS011;43583;53.132;6.574;2023-10-09T07:56:36;12.77;;;4.65;;
57752;SDS011;43583;53.132;6.574;2023-10-09T07:59:12;12.52;;;4.65;;
57752;SDS011;43583;53.132;6.574;2023-10-09T08:01:42;10.63;;;4.35;;
57752;SDS011;43583;53.132;6.574;2023-10-09T08:04:22;11.25;;;4.78;;
57752;SDS011;43583;53.132;6.574;2023-10-09T08:07:13;13.98;;;4.38;;
57752;SDS011;43583;53.132;6.574;2023-10-09T08:09:51;14.13;;;4.38;;
57752;SDS011;43583;53.132;6.574;2023-10-09T08:12:35;13.57;;;5.07;;
57752;SDS011;43583;53.132;6.574;2023-10-09T08:15:23;11.60;;;4.05;;
57752;SDS011;43583;53.132;6.574;2023-10-09T08:17:59;10.82;;;3.75;;
57752;SDS011;43583;53.132;6.574;2023-10-09T08:20:43;16.20;;;5.07;;
57752;SDS011;43583;53.132;6.574;2023-10-09T08:23:18;12.80;;;4.78;;
57752;SDS011;43583;53.132;6.574;2023-10-09T08:26:04;21.25;;;6.57;;
57752;SDS011;43583;53.132;6.574;2023-10-09T08:28:43;12.40;;;5.28;;
57752;SDS011;43583;53.132;6.574;2023-10-09T08:31:14;15.82;;;4.45;;
57752;SDS011;43583;53.132;6.574;2023-10-09T08:33:45;20.27;;;5.95;;
57752;SDS011;43583;53.132;6.574;2023-10-09T08:36:21;19.75;;;6.68;;
57752;SDS011;43583;53.132;6.574;2023-10-09T08:38:53;16.40;;;6.28;;
57752;SDS011;43583;53.132;6.574;2023-10-09T08:41:23;11.70;;;4.50;;
57752;SDS011;43583;53.132;6.574;2023-10-09T08:43:55;15.85;;;3.88;;
57752;SDS011;43583;53.132;6.574;2023-10-09T08:46:26;12.25;;;4.60;;
57752;SDS011;43583;53.132;6.574;2023-10-09T08:48:54;14.73;;;4.13;;
57752;SDS011;43583;53.132;6.574;2023-10-09T08:51:21;14.13;;;4.13;;
57752;SDS011;43583;53.132;6.574;2023-10-09T08:53:49;16.00;;;4.30;;
57752;SDS011;43583;53.132;6.574;2023-10-09T08:56:18;11.82;;;3.85;;
57752;SDS011;43583;53.132;6.574;2023-10-09T08:58:57;13.90;;;4.75;;
57752;SDS011;43583;53.132;6.574;2023-10-09T09:01:24;11.00;;;4.60;;
57752;SDS011;43583;53.132;6.574;2023-10-09T09:03:51;11.75;;;4.43;;
57752;SDS011;43583;53.132;6.574;2023-10-09T09:06:20;9.75;;;4.32;;
57752;SDS011;43583;53.132;6.574;2023-10-09T09:08:48;10.40;;;4.05;;
57752;SDS011;43583;53.132;6.574;2023-10-09T09:11:15;9.38;;;3.65;;
57752;SDS011;43583;53.132;6.574;2023-10-09T09:16:28;11.98;;;3.88;;
57752;SDS011;43583;53.132;6.574;2023-10-09T09:18:58;10.23;;;4.22;;
57752;SDS011;43583;53.132;6.574;2023-10-09T09:21:28;10.20;;;3.67;;
57752;SDS011;43583;53.132;6.574;2023-10-09T09:23:55;12.50;;;3.83;;
57752;SDS011;43583;53.132;6.574;2023-10-09T09:26:35;11.05;;;3.50;;
57752;SDS011;43583;53.132;6.574;2023-10-09T09:29:05;9.80;;;3.17;;
57752;SDS011;43583;53.132;6.574;2023-10-09T09:31:31;11.85;;;3.75;;
57752;SDS011;43583;53.132;6.574;2023-10-09T09:34:06;8.48;;;3.50;;
57752;SDS011;43583;53.132;6.574;2023-10-09T09:36:57;12.70;;;4.53;;
57752;SDS011;43583;53.132;6.574;2023-10-09T09:39:27;9.77;;;3.63;;
57752;SDS011;43583;53.132;6.574;2023-10-09T09:41:57;10.20;;;4.22;;
57752;SDS011;43583;53.132;6.574;2023-10-09T09:44:30;10.48;;;4.43;;
57752;SDS011;43583;53.132;6.574;2023-10-09T09:47:00;10.32;;;3.55;;
57752;SDS011;43583;53.132;6.574;2023-10-09T09:49:29;8.15;;;3.85;;
57752;SDS011;43583;53.132;6.574;2023-10-09T09:52:00;8.52;;;4.60;;
57752;SDS011;43583;53.132;6.574;2023-10-09T09:54:35;10.15;;;4.30;;
57752;SDS011;43583;53.132;6.574;2023-10-09T09:57:03;7.32;;;3.22;;
57752;SDS011;43583;53.132;6.574;2023-10-09T09:59:42;8.57;;;3.40;;
57752;SDS011;43583;53.132;6.574;2023-10-09T10:02:20;10.07;;;3.55;;
57752;SDS011;43583;53.132;6.574;2023-10-09T10:04:54;5.10;;;2.65;;
57752;SDS011;43583;53.132;6.574;2023-10-09T10:07:29;6.63;;;2.80;;
57752;SDS011;43583;53.132;6.574;2023-10-09T10:10:30;10.50;;;2.65;;
57752;SDS011;43583;53.132;6.574;2023-10-09T10:13:05;9.10;;;2.72;;
57752;SDS011;43583;53.132;6.574;2023-10-09T10:18:51;10.63;;;2.22;;
57752;SDS011;43583;53.132;6.574;2023-10-09T10:21:49;7.15;;;3.10;;
57752;SDS011;43583;53.132;6.574;2023-10-09T10:27:17;9.88;;;2.28;;
57752;SDS011;43583;53.132;6.574;2023-10-09T10:33:10;6.93;;;1.80;;
57752;SDS011;43583;53.132;6.574;2023-10-09T10:35:41;6.43;;;2.00;;
57752;SDS011;43583;53.132;6.574;2023-10-09T10:38:24;7.15;;;2.05;;
57752;SDS011;43583;53.132;6.574;2023-10-09T10:41:07;6.70;;;2.10;;
57752;SDS011;43583;53.132;6.574;2023-10-09T10:43:48;5.85;;;3.00;;
57752;SDS011;43583;53.132;6.574;2023-10-09T10:46:16;6.20;;;2.22;;
57752;SDS011;43583;53.132;6.574;2023-10-09T10:49:02;6.75;;;1.92;;
57752;SDS011;43583;53.132;6.574;2023-10-09T10:51:42;8.18;;;2.58;;
57752;SDS011;43583;53.132;6.574;2023-10-09T10:54:26;7.88;;;2.40;;
57752;SDS011;43583;53.132;6.574;2023-10-09T10:57:16;8.93;;;2.70;;
57752;SDS011;43583;53.132;6.574;2023-10-09T10:59:45;9.82;;;1.90;;
57752;SDS011;43583;53.132;6.574;2023-10-09T11:02:12;10.63;;;2.10;;
57752;SDS011;43583;53.132;6.574;2023-10-09T11:04:37;8.15;;;2.30;;
57752;SDS011;43583;53.132;6.574;2023-10-09T11:07:05;6.07;;;2.40;;
57752;SDS011;43583;53.132;6.574;2023-10-09T11:09:56;5.00;;;1.80;;
57752;SDS011;43583;53.132;6.574;2023-10-09T11:12:32;10.75;;;2.35;;
57752;SDS011;43583;53.132;6.574;2023-10-09T11:15:11;8.23;;;2.40;;
57752;SDS011;43583;53.132;6.574;2023-10-09T11:18:05;13.80;;;3.15;;
57752;SDS011;43583;53.132;6.574;2023-10-09T11:20:42;6.68;;;1.85;;
57752;SDS011;43583;53.132;6.574;2023-10-09T11:23:22;5.50;;;1.85;;
57752;SDS011;43583;53.132;6.574;2023-10-09T11:26:04;8.18;;;2.58;;
57752;SDS011;43583;53.132;6.574;2023-10-09T11:32:00;11.02;;;2.00;;
57752;SDS011;43583;53.132;6.574;2023-10-09T11:34:29;8.10;;;2.17;;
57752;SDS011;43583;53.132;6.574;2023-10-09T11:36:56;10.10;;;2.58;;
57752;SDS011;43583;53.132;6.574;2023-10-09T11:39:26;11.93;;;2.47;;
57752;SDS011;43583;53.132;6.574;2023-10-09T11:42:03;8.60;;;2.08;;
57752;SDS011;43583;53.132;6.574;2023-10-09T11:47:06;9.07;;;1.98;;
57752;SDS011;43583;53.132;6.574;2023-10-09T11:49:51;5.53;;;1.73;;
57752;SDS011;43583;53.132;6.574;2023-10-09T11:52:27;10.85;;;3.30;;
57752;SDS011;43583;53.132;6.574;2023-10-09T11:55:00;5.60;;;1.90;;
57752;SDS011;43583;53.132;6.574;2023-10-09T11:57:39;8.52;;;1.70;;
57752;SDS011;43583;53.132;6.574;2023-10-09T12:00:06;3.97;;;1.02;;
57752;SDS011;43583;53.132;6.574;2023-10-09T12:02:36;7.18;;;1.70;;
57752;SDS011;43583;53.132;6.574;2023-10-09T12:05:09;5.45;;;1.40;;
57752;SDS011;43583;53.132;6.574;2023-10-09T12:07:42;3.90;;;0.90;;
57752;SDS011;43583;53.132;6.574;2023-10-09T12:10:11;6.53;;;1.10;;
57752;SDS011;43583;53.132;6.574;2023-10-09T12:12:39;4.90;;;0.68;;
57752;SDS011;43583;53.132;6.574;2023-10-09T12:15:05;3.47;;;0.80;;
57752;SDS011;43583;53.132;6.574;2023-10-09T12:17:31;2.80;;;0.60;;
57752;SDS011;43583;53.132;6.574;2023-10-09T12:19:57;4.55;;;0.80;;
57752;SDS011;43583;53.132;6.574;2023-10-09T12:22:23;4.28;;;0.65;;
57752;SDS011;43583;53.132;6.574;2023-10-09T12:24:52;5.55;;;0.80;;
57752;SDS011;43583;53.132;6.574;2023-10-09T12:27:18;7.93;;;1.00;;
57752;SDS011;43583;53.132;6.574;2023-10-09T12:29:45;7.75;;;0.95;;
57752;SDS011;43583;53.132;6.574;2023-10-09T12:32:11;5.22;;;0.50;;
57752;SDS011;43583;53.132;6.574;2023-10-09T12:34:37;3.65;;;0.80;;
57752;SDS011;43583;53.132;6.574;2023-10-09T12:37:03;7.55;;;1.73;;
57752;SDS011;43583;53.132;6.574;2023-10-09T12:39:29;5.47;;;1.08;;
57752;SDS011;43583;53.132;6.574;2023-10-09T12:42:01;6.78;;;0.90;;
57752;SDS011;43583;53.132;6.574;2023-10-09T12:44:33;8.30;;;0.70;;
57752;SDS011;43583;53.132;6.574;2023-10-09T12:46:59;2.75;;;0.57;;
57752;SDS011;43583;53.132;6.574;2023-10-09T12:49:29;6.47;;;1.42;;
57752;SDS011;43583;53.132;6.574;2023-10-09T12:51:55;5.85;;;0.82;;
57752;SDS011;43583;53.132;6.574;2023-10-09T12:54:22;7.55;;;1.10;;
57752;SDS011;43583;53.132;6.574;2023-10-09T12:56:52;7.63;;;0.80;;
57752;SDS011;43583;53.132;6.574;2023-10-09T12:59:20;3.25;;;0.60;;
57752;SDS011;43583;53.132;6.574;2023-10-09T13:01:47;1.60;;;0.30;;
57752;SDS011;43583;53.132;6.574;2023-10-09T13:04:17;4.15;;;0.50;;
57752;SDS011;43583;53.132;6.574;2023-10-09T13:06:47;3.08;;;0.50;;
57752;SDS011;43583;53.132;6.574;2023-10-09T13:09:17;4.15;;;0.75;;
57752;SDS011;43583;53.132;6.574;2023-10-09T13:11:58;3.95;;;0.40;;
57752;SDS011;43583;53.132;6.574;2023-10-09T13:14:25;3.38;;;0.32;;
57752;SDS011;43583;53.132;6.574;2023-10-09T13:16:59;5.80;;;0.35;;
57752;SDS011;43583;53.132;6.574;2023-10-09T13:19:25;5.63;;;0.60;;
57752;SDS011;43583;53.132;6.574;2023-10-09T13:21:51;1.52;;;0.28;;
57752;SDS011;43583;53.132;6.574;2023-10-09T13:24:17;3.55;;;0.50;;
57752;SDS011;43583;53.132;6.574;2023-10-09T13:26:42;3.00;;;0.32;;
57752;SDS011;43583;53.132;6.574;2023-10-09T13:29:16;5.70;;;0.43;;
57752;SDS011;43583;53.132;6.574;2023-10-09T13:31:47;1.13;;;0.30;;
57752;SDS011;43583;53.132;6.574;2023-10-09T13:34:13;4.50;;;1.10;;
57752;SDS011;43583;53.132;6.574;2023-10-09T13:36:41;4.38;;;0.47;;
57752;SDS011;43583;53.132;6.574;2023-10-09T13:39:20;3.13;;;0.73;;
57752;SDS011;43583;53.132;6.574;2023-10-09T13:41:52;3.35;;;0.40;;
57752;SDS011;43583;53.132;6.574;2023-10-09T13:44:23;4.18;;;0.60;;
57752;SDS011;43583;53.132;6.574;2023-10-09T13:46:59;3.33;;;0.43;;
57752;SDS011;43583;53.132;6.574;2023-10-09T13:49:26;5.57;;;0.55;;
57752;SDS011;43583;53.132;6.574;2023-10-09T13:51:55;1.92;;;0.77;;
57752;SDS011;43583;53.132;6.574;2023-10-09T13:54:26;2.33;;;0.45;;
57752;SDS011;43583;53.132;6.574;2023-10-09T13:56:58;4.28;;;0.60;;
57752;SDS011;43583;53.132;6.574;2023-10-09T13:59:24;4.78;;;0.50;;
57752;SDS011;43583;53.132;6.574;2023-10-09T14:01:53;2.38;;;0.47;;
57752;SDS011;43583;53.132;6.574;2023-10-09T14:04:24;6.00;;;1.30;;
57752;SDS011;43583;53.132;6.574;2023-10-09T14:06:53;3.15;;;0.73;;
57752;SDS011;43583;53.132;6.574;2023-10-09T14:09:26;3.45;;;0.50;;
57752;SDS011;43583;53.132;6.574;2023-10-09T14:11:56;3.10;;;0.60;;
57752;SDS011;43583;53.132;6.574;2023-10-09T14:14:36;6.07;;;0.60;;
57752;SDS011;43583;53.132;6.574;2023-10-09T14:19:44;5.90;;;0.60;;
57752;SDS011;43583;53.132;6.574;2023-10-09T14:22:16;3.67;;;0.70;;
57752;SDS011;43583;53.132;6.574;2023-10-09T14:24:42;4.50;;;0.40;;
57752;SDS011;43583;53.132;6.574;2023-10-09T14:27:12;2.35;;;0.80;;
57752;SDS011;43583;53.132;6.574;2023-10-09T14:29:51;2.47;;;0.47;;
57752;SDS011;43583;53.132;6.574;2023-10-09T14:32:21;6.22;;;0.57;;
57752;SDS011;43583;53.132;6.574;2023-10-09T14:34:54;2.10;;;0.30;;
57752;SDS011;43583;53.132;6.574;2023-10-09T14:37:25;3.53;;;0.60;;
57752;SDS011;43583;53.132;6.574;2023-10-09T14:39:51;2.13;;;0.38;;
57752;SDS011;43583;53.132;6.574;2023-10-09T14:42:18;4.57;;;0.80;;
57752;SDS011;43583;53.132;6.574;2023-10-09T14:44:45;6.05;;;0.45;;
57752;SDS011;43583;53.132;6.574;2023-10-09T14:47:11;4.22;;;1.00;;
57752;SDS011;43583;53.132;6.574;2023-10-09T14:49:39;4.05;;;0.70;;
57752;SDS011;43583;53.132;6.574;2023-10-09T14:52:12;3.90;;;0.40;;
57752;SDS011;43583;53.132;6.574;2023-10-09T14:54:42;3.60;;;0.55;;
57752;SDS011;43583;53.132;6.574;2023-10-09T14:57:09;3.28;;;0.40;;
57752;SDS011;43583;53.132;6.574;2023-10-09T14:59:36;2.47;;;0.70;;
57752;SDS011;43583;53.132;6.574;2023-10-09T15:02:04;2.58;;;0.65;;
57752;SDS011;43583;53.132;6.574;2023-10-09T15:04:32;8.98;;;0.60;;
57752;SDS011;43583;53.132;6.574;2023-10-09T15:07:01;8.32;;;0.80;;
57752;SDS011;43583;53.132;6.574;2023-10-09T15:09:28;2.38;;;0.88;;
57752;SDS011;43583;53.132;6.574;2023-10-09T15:11:56;4.05;;;0.75;;
57752;SDS011;43583;53.132;6.574;2023-10-09T15:14:22;3.20;;;0.85;;
57752;SDS011;43583;53.132;6.574;2023-10-09T15:16:48;5.18;;;0.93;;
57752;SDS011;43583;53.132;6.574;2023-10-09T15:19:15;3.40;;;0.55;;
57752;SDS011;43583;53.132;6.574;2023-10-09T15:21:45;3.95;;;0.50;;
57752;SDS011;43583;53.132;6.574;2023-10-09T15:24:11;2.72;;;0.60;;
57752;SDS011;43583;53.132;6.574;2023-10-09T15:26:41;4.15;;;0.52;;
57752;SDS011;43583;53.132;6.574;2023-10-09T15:29:07;5.95;;;0.70;;
57752;SDS011;43583;53.132;6.574;2023-10-09T15:31:35;7.35;;;0.90;;
57752;SDS011;43583;53.132;6.574;2023-10-09T15:34:05;4.45;;;0.43;;
57752;SDS011;43583;53.132;6.574;2023-10-09T15:36:33;3.58;;;0.52;;
57752;SDS011;43583;53.132;6.574;2023-10-09T15:39:00;2.00;;;0.40;;
57752;SDS011;43583;53.132;6.574;2023-10-09T15:41:29;2.15;;;0.60;;
57752;SDS011;43583;53.132;6.574;2023-10-09T15:43:55;4.28;;;0.55;;
57752;SDS011;43583;53.132;6.574;2023-10-09T15:46:22;3.40;;;0.30;;
57752;SDS011;43583;53.132;6.574;2023-10-09T15:48:48;5.25;;;0.57;;
57752;SDS011;43583;53.132;6.574;2023-10-09T15:51:16;4.63;;;0.45;;
57752;SDS011;43583;53.132;6.574;2023-10-09T15:53:42;3.67;;;0.50;;
57752;SDS011;43583;53.132;6.574;2023-10-09T15:56:09;4.78;;;0.60;;